createdAt,value
2019-03-21T00:02:27.928Z,76.20
2019-03-21T00:05:34.195Z,71.60
2019-03-21T00:08:38.610Z,70.80
2019-03-21T00:12:02.963Z,69.93
2019-03-21T00:15:33.182Z,66.37
2019-03-21T00:18:37.667Z,63.93
2019-03-21T00:21:42.105Z,63.40
2019-03-21T00:24:46.356Z,61.40
2019-03-21T00:27:50.858Z,60.97
2019-03-21T00:30:55.080Z,58.47
2019-03-21T00:33:59.579Z,58.77
2019-03-21T00:37:03.795Z,58.23
2019-03-21T00:40:10.786Z,56.97
2019-03-21T00:43:15.386Z,54.23
2019-03-21T00:46:19.592Z,53.40
2019-03-21T00:49:23.763Z,51.93
2019-03-21T00:52:28.211Z,52.77
2019-03-21T00:55:33.203Z,51.83
2019-03-21T00:58:37.934Z,52.77
2019-03-21T01:01:42.110Z,48.47
2019-03-21T01:04:46.226Z,48.67
2019-03-21T01:07:50.575Z,47.70
2019-03-21T01:10:54.690Z,46.07
2019-03-21T01:13:58.860Z,46.30
2019-03-21T01:17:03.639Z,44.93
2019-03-21T01:20:09.921Z,44.80
2019-03-21T01:23:14.041Z,42.03
2019-03-21T01:26:18.152Z,42.60
2019-03-21T01:29:22.575Z,41.00
2019-03-21T01:32:26.759Z,41.23
2019-03-21T01:35:30.928Z,42.23
2019-03-21T01:38:35.099Z,41.37
2019-03-21T01:41:39.565Z,40.10
2019-03-21T01:44:43.679Z,39.67
2019-03-21T01:47:47.790Z,37.40
2019-03-21T01:50:51.891Z,36.70
2019-03-21T01:53:56.129Z,37.70
2019-03-21T01:57:00.630Z,36.13
2019-03-21T02:00:06.121Z,35.33
2019-03-21T02:03:10.449Z,34.50
2019-03-21T02:06:14.650Z,35.37
2019-03-21T02:09:18.751Z,35.17
2019-03-21T02:12:22.942Z,33.30
2019-03-21T02:15:27.346Z,34.33
2019-03-21T02:18:31.464Z,33.20
2019-03-21T02:21:35.691Z,33.33
2019-03-21T02:24:39.873Z,32.20
2019-03-21T02:27:44.081Z,31.37
2019-03-21T02:30:48.491Z,31.23
2019-03-21T02:33:52.602Z,30.27
2019-03-21T02:36:57.045Z,30.87
2019-03-21T02:40:01.309Z,29.37
2019-03-21T02:43:06.163Z,30.37
2019-03-21T02:46:10.668Z,28.83
2019-03-21T02:49:14.883Z,26.80
2019-03-21T02:52:19.340Z,27.97
2019-03-21T02:55:23.891Z,27.87
2019-03-21T02:58:28.120Z,27.53
2019-03-21T03:01:32.227Z,25.67
2019-03-21T03:04:36.356Z,26.47
2019-03-21T03:07:40.609Z,25.43
2019-03-21T03:10:47.138Z,24.80
2019-03-21T03:13:51.407Z,25.17
2019-03-21T03:16:55.635Z,24.80
2019-03-21T03:20:00.590Z,23.83
2019-03-21T03:23:04.949Z,23.70
2019-03-21T03:26:09.185Z,23.77
2019-03-21T03:29:13.387Z,22.77
2019-03-21T03:32:17.596Z,22.83
2019-03-21T03:35:21.705Z,22.10
2019-03-21T03:38:25.829Z,21.03
2019-03-21T03:41:30.304Z,21.73
2019-03-21T03:44:34.499Z,22.27
2019-03-21T03:47:38.701Z,22.37
2019-03-21T03:50:43.240Z,20.63
2019-03-21T03:53:47.746Z,20.47
2019-03-21T03:56:52.152Z,20.17
2019-03-21T03:59:56.563Z,19.97
2019-03-21T04:03:01.002Z,20.40
2019-03-21T04:06:05.744Z,20.10
2019-03-21T04:09:10.751Z,19.10
2019-03-21T04:12:15.064Z,19.37
2019-03-21T04:15:19.277Z,19.57
2019-03-21T04:18:23.895Z,19.17
2019-03-21T04:21:28.095Z,17.87
2019-03-21T04:24:32.527Z,18.50
2019-03-21T04:27:36.991Z,17.87
2019-03-21T04:30:41.225Z,17.23
2019-03-21T04:33:45.645Z,18.33
2019-03-21T04:36:49.792Z,17.53
2019-03-21T04:39:53.917Z,16.97
2019-03-21T04:42:58.114Z,16.93
2019-03-21T04:46:03.819Z,16.13
2019-03-21T04:49:08.476Z,16.43
2019-03-21T04:52:12.957Z,15.90
2019-03-21T04:55:17.279Z,16.27
2019-03-21T04:58:21.721Z,15.43
2019-03-21T05:01:26.020Z,14.83
2019-03-21T05:04:30.492Z,15.37
2019-03-21T05:07:34.645Z,57.20
2019-03-21T05:10:39.467Z,364.70
2019-03-21T05:13:43.673Z,127.27
2019-03-21T05:16:48.072Z,124.20
2019-03-21T05:19:52.208Z,138.67
2019-03-21T05:22:56.453Z,121.17
2019-03-21T05:26:00.606Z,132.73
2019-03-21T05:29:04.879Z,314.07
2019-03-21T05:32:09.097Z,289.17
2019-03-21T05:35:13.623Z,268.13
2019-03-21T05:38:18.115Z,260.13
2019-03-21T05:41:22.633Z,243.17
2019-03-21T05:44:39.968Z,233.33
2019-03-21T05:47:44.259Z,226.63
2019-03-21T05:50:48.405Z,130.60
2019-03-21T05:53:52.561Z,124.57
2019-03-21T05:56:56.794Z,122.17
2019-03-21T06:00:01.269Z,120.67
2019-03-21T06:03:07.154Z,100.73
2019-03-21T06:06:14.122Z,91.80
2019-03-21T06:09:19.675Z,86.37
2019-03-21T06:12:23.797Z,84.87
2019-03-21T06:15:30.058Z,84.13
2019-03-21T06:19:02.033Z,83.57
2019-03-21T06:22:12.606Z,82.57
2019-03-21T06:25:26.954Z,78.03
2019-03-21T06:28:31.189Z,77.43
2019-03-21T06:31:35.681Z,75.50
2019-03-21T06:34:39.893Z,73.47
2019-03-21T06:37:44.027Z,73.13
2019-03-21T06:40:48.845Z,69.70
2019-03-21T06:43:53.277Z,70.17
2019-03-21T06:46:57.392Z,66.83
2019-03-21T06:50:01.522Z,66.90
2019-03-21T06:53:05.717Z,64.70
2019-03-21T06:56:10.247Z,63.70
2019-03-21T06:59:14.380Z,63.97
2019-03-21T07:02:18.876Z,58.97
2019-03-21T07:05:23.021Z,59.07
2019-03-21T07:08:27.724Z,61.03
2019-03-21T07:11:31.918Z,56.87
2019-03-21T07:14:36.640Z,54.77
2019-03-21T07:17:40.923Z,53.47
2019-03-21T07:20:45.145Z,54.83
2019-03-21T07:23:49.391Z,52.83
2019-03-21T07:26:53.882Z,53.23
2019-03-21T07:29:58.306Z,51.13
2019-03-21T07:33:02.420Z,51.13
2019-03-21T07:36:06.712Z,50.83
2019-03-21T07:39:11.197Z,50.60
2019-03-21T07:42:15.392Z,49.20
2019-03-21T07:45:19.601Z,47.67
2019-03-21T07:48:23.738Z,46.83
2019-03-21T07:51:27.929Z,46.17
2019-03-21T07:54:32.053Z,44.43
2019-03-21T07:57:36.667Z,45.13
2019-03-21T08:00:41.090Z,44.07
2019-03-21T08:03:45.219Z,43.43
2019-03-21T08:06:49.964Z,42.90
2019-03-21T08:09:54.549Z,43.47
2019-03-21T08:12:58.991Z,41.40
2019-03-21T08:16:03.201Z,42.53
2019-03-21T08:19:07.398Z,41.20
2019-03-21T08:22:12.142Z,40.63
2019-03-21T08:25:16.358Z,40.57
2019-03-21T08:28:20.822Z,40.50
2019-03-21T08:31:25.029Z,37.77
2019-03-21T08:34:29.757Z,37.43
2019-03-21T08:37:33.869Z,37.93
2019-03-21T08:40:37.995Z,37.33
2019-03-21T08:43:42.430Z,35.57
2019-03-21T08:46:46.625Z,35.73
2019-03-21T08:49:51.076Z,35.80
2019-03-21T08:52:55.565Z,35.37
2019-03-21T08:55:59.775Z,33.40
2019-03-21T08:59:03.992Z,33.70
2019-03-21T09:02:08.109Z,32.33
2019-03-21T09:05:12.437Z,33.23
2019-03-21T09:08:16.889Z,32.20
2019-03-21T09:11:21.095Z,32.57
2019-03-21T09:14:25.229Z,30.70
2019-03-21T09:17:29.353Z,30.87
2019-03-21T09:20:33.985Z,30.67
2019-03-21T09:23:38.456Z,30.03
2019-03-21T09:26:42.654Z,29.40
2019-03-21T09:29:53.359Z,28.30
2019-03-21T09:32:53.286Z,27.23
2019-03-21T09:35:57.997Z,27.90
2019-03-21T09:39:02.190Z,27.17
2019-03-21T09:42:06.649Z,27.50
2019-03-21T09:45:11.077Z,26.20
2019-03-21T09:48:15.285Z,26.97
2019-03-21T09:51:30.341Z,26.60
2019-03-21T09:54:25.996Z,26.13
2019-03-21T09:57:30.145Z,25.10
2019-03-21T10:00:35.461Z,25.63
2019-03-21T10:03:39.854Z,25.00
2019-03-21T10:06:44.052Z,23.53
2019-03-21T10:09:48.537Z,23.93
2019-03-21T10:12:55.429Z,23.23
2019-03-21T10:15:59.185Z,23.50
2019-03-21T10:19:03.356Z,23.03
2019-03-21T10:22:07.448Z,21.50
2019-03-21T10:25:12.062Z,21.87
2019-03-21T10:28:16.282Z,22.57
2019-03-21T10:31:20.487Z,22.67
2019-03-21T10:34:24.958Z,21.90
2019-03-21T10:37:29.469Z,22.80
2019-03-21T10:40:33.874Z,20.87
2019-03-21T10:43:38.006Z,20.50
2019-03-21T10:46:42.141Z,21.53
2019-03-21T10:49:46.629Z,20.57
2019-03-21T10:52:51.100Z,20.63
2019-03-21T10:55:55.308Z,19.30
2019-03-21T10:58:59.829Z,20.37
2019-03-21T11:02:07.525Z,20.60
2019-03-21T11:05:10.013Z,19.67
2019-03-21T11:08:14.232Z,19.43
2019-03-21T11:11:18.438Z,19.63
2019-03-21T11:14:22.637Z,19.33
2019-03-21T11:17:26.833Z,18.53
2019-03-21T11:20:32.521Z,18.63
2019-03-21T11:23:36.974Z,18.60
2019-03-21T11:26:41.413Z,17.90
2019-03-21T11:29:45.917Z,17.83
2019-03-21T11:32:50.115Z,17.67
2019-03-21T11:35:54.239Z,16.90
2019-03-21T11:38:58.439Z,16.77
2019-03-21T11:42:02.642Z,16.73
2019-03-21T11:45:07.094Z,16.63
2019-03-21T11:48:11.566Z,16.47
2019-03-21T11:51:15.806Z,15.40
2019-03-21T11:54:20.283Z,16.00
2019-03-21T11:57:25.013Z,16.37
2019-03-21T12:00:43.027Z,15.33
2019-03-21T12:03:35.766Z,14.77
2019-03-21T12:06:40.524Z,14.63
2019-03-21T12:09:44.656Z,14.97
2019-03-21T12:12:49.135Z,14.20
2019-03-21T12:15:53.248Z,13.93
2019-03-21T12:18:57.393Z,14.17
2019-03-21T12:22:01.923Z,13.43
2019-03-21T12:25:07.203Z,14.00
2019-03-21T12:28:11.329Z,12.93
2019-03-21T12:31:15.774Z,12.73
2019-03-21T12:34:20.514Z,12.53
2019-03-21T12:37:24.914Z,13.57
2019-03-21T12:40:29.138Z,12.23
2019-03-21T12:43:33.339Z,12.50
2019-03-21T12:46:37.553Z,12.70
2019-03-21T12:49:41.757Z,12.20
2019-03-21T12:52:45.968Z,11.53
2019-03-21T12:55:50.171Z,11.20
2019-03-21T12:58:54.399Z,11.57
2019-03-21T13:01:58.608Z,11.30
2019-03-21T13:05:02.823Z,11.20
2019-03-21T13:08:07.083Z,11.07
2019-03-21T13:11:11.282Z,10.47
2019-03-21T13:14:15.491Z,10.63
2019-03-21T13:17:19.983Z,11.00
2019-03-21T13:20:24.115Z,10.33
2019-03-21T13:23:28.233Z,9.97
2019-03-21T13:26:32.440Z,9.40
2019-03-21T13:29:36.567Z,9.90
2019-03-21T13:32:40.684Z,9.93
2019-03-21T13:35:45.077Z,9.33
2019-03-21T13:38:49.532Z,9.07
2019-03-21T13:41:53.658Z,8.57
2019-03-21T13:44:58.463Z,9.73
2019-03-21T13:48:03.214Z,9.27
2019-03-21T13:51:07.335Z,9.47
2019-03-21T13:54:11.529Z,8.87
2019-03-21T13:57:15.725Z,9.40
2019-03-21T14:00:21.412Z,8.57
2019-03-21T14:03:25.953Z,9.03
2019-03-21T14:06:30.145Z,8.87
2019-03-21T14:09:34.566Z,8.70
2019-03-21T14:12:38.788Z,8.50
2019-03-21T14:15:43.308Z,7.97
2019-03-21T14:18:47.432Z,8.30
2019-03-21T14:21:51.899Z,7.83
2019-03-21T14:24:56.109Z,8.57
2019-03-21T14:28:00.233Z,7.77
2019-03-21T14:31:04.460Z,8.43
2019-03-21T14:34:08.902Z,7.43
2019-03-21T14:37:13.383Z,7.73
2019-03-21T14:40:17.889Z,7.90
2019-03-21T14:43:22.019Z,6.90
2019-03-21T14:46:26.527Z,7.80
2019-03-21T14:49:30.968Z,7.23
2019-03-21T14:52:35.690Z,7.40
2019-03-21T14:55:47.361Z,7.00
2019-03-21T14:58:46.320Z,7.70
2019-03-21T15:01:50.516Z,6.80
2019-03-21T15:04:54.726Z,7.00
2019-03-21T15:07:59.269Z,6.53
2019-03-21T15:11:03.420Z,6.97
2019-03-21T15:14:07.863Z,6.17
2019-03-21T15:17:12.063Z,7.00
2019-03-21T15:20:16.659Z,6.57
2019-03-21T15:23:20.891Z,6.50
2019-03-21T15:26:25.081Z,6.10
2019-03-21T15:29:29.269Z,6.73
2019-03-21T15:32:33.779Z,6.50
2019-03-21T15:35:37.955Z,6.10
2019-03-21T15:38:42.154Z,6.33
2019-03-21T15:41:46.340Z,6.37
2019-03-21T15:44:51.638Z,6.30
2019-03-21T15:47:55.953Z,6.63
2019-03-21T15:51:04.863Z,6.37
2019-03-21T15:54:06.100Z,6.27
2019-03-21T15:57:10.284Z,6.47
2019-03-21T16:00:18.274Z,6.30
2019-03-21T16:03:22.470Z,6.27
2019-03-21T16:06:26.872Z,6.83
2019-03-21T16:09:30.999Z,5.93
2019-03-21T16:12:35.240Z,7.60
2019-03-21T16:15:39.435Z,76.07
2019-03-21T16:18:43.581Z,524.23
2019-03-21T16:21:48.357Z,54.73
2019-03-21T16:24:52.515Z,257.40
2019-03-21T16:27:57.042Z,227.40
2019-03-21T16:31:01.251Z,156.30
2019-03-21T16:34:05.742Z,89.57
2019-03-21T16:37:12.004Z,339.60
2019-03-21T16:40:16.305Z,328.83
2019-03-21T16:43:20.814Z,320.37
2019-03-21T16:46:25.310Z,316.17
2019-03-21T16:49:29.555Z,312.90
2019-03-21T16:52:33.855Z,306.87
2019-03-21T16:55:38.355Z,303.53
2019-03-21T16:58:42.488Z,303.43
2019-03-21T17:01:47.512Z,291.20
2019-03-21T17:04:51.672Z,288.57
2019-03-21T17:07:55.822Z,282.67
2019-03-21T17:10:59.974Z,284.60
2019-03-21T17:14:04.195Z,282.13
2019-03-21T17:17:08.351Z,278.03
2019-03-21T17:20:13.036Z,275.07
2019-03-21T17:23:17.477Z,269.20
2019-03-21T17:26:21.723Z,265.30
2019-03-21T17:29:26.205Z,262.30
2019-03-21T17:32:30.330Z,264.00
2019-03-21T17:35:34.608Z,237.77
2019-03-21T17:38:39.055Z,193.23
2019-03-21T17:41:43.495Z,181.67
2019-03-21T17:44:47.940Z,163.90
2019-03-21T17:47:52.412Z,143.10
2019-03-21T17:50:56.630Z,145.03
2019-03-21T17:54:01.099Z,134.93
2019-03-21T17:57:05.579Z,148.73
2019-03-21T18:00:12.803Z,138.73
2019-03-21T18:03:17.013Z,135.27
2019-03-21T18:06:21.397Z,132.50
2019-03-21T18:09:25.641Z,127.13
2019-03-21T18:12:29.831Z,121.73
2019-03-21T18:15:33.964Z,124.57
2019-03-21T18:18:38.219Z,115.17
2019-03-21T18:21:42.611Z,117.43
2019-03-21T18:24:53.890Z,113.97
2019-03-21T18:27:52.672Z,107.17
2019-03-21T18:30:56.808Z,111.73
2019-03-21T18:34:01.260Z,106.37
2019-03-21T18:37:05.537Z,106.97
2019-03-21T18:40:10.295Z,102.13
2019-03-21T18:43:14.739Z,98.90
2019-03-21T18:46:19.527Z,96.67
2019-03-21T18:49:23.722Z,96.90
2019-03-21T18:52:28.048Z,91.57
2019-03-21T18:55:32.164Z,93.47
2019-03-21T18:58:36.384Z,92.57
2019-03-21T19:01:40.930Z,91.10
2019-03-21T19:04:45.142Z,87.17
2019-03-21T19:07:49.280Z,84.67
2019-03-21T19:10:53.683Z,85.10
2019-03-21T19:13:57.886Z,84.30
2019-03-21T19:17:02.082Z,77.13
2019-03-21T19:20:07.427Z,78.93
2019-03-21T19:23:11.913Z,78.30
2019-03-21T19:26:16.028Z,76.87
2019-03-21T19:29:20.511Z,72.73
2019-03-21T19:32:25.038Z,73.67
2019-03-21T19:35:29.162Z,70.70
2019-03-21T19:38:33.610Z,70.60
2019-03-21T19:41:38.022Z,69.23
2019-03-21T19:44:42.219Z,63.70
2019-03-21T19:47:46.710Z,66.50
2019-03-21T19:50:50.903Z,64.27
2019-03-21T19:53:55.041Z,61.37
2019-03-21T19:56:59.304Z,59.50
2019-03-21T20:00:03.740Z,60.30
2019-03-21T20:03:07.955Z,58.87
2019-03-21T20:06:12.143Z,58.87
2019-03-21T20:09:16.665Z,55.30
2019-03-21T20:12:21.196Z,56.83
2019-03-21T20:15:25.398Z,54.50
2019-03-21T20:18:29.629Z,55.80
2019-03-21T20:21:33.821Z,54.10
2019-03-21T20:24:37.957Z,53.03
2019-03-21T20:27:42.188Z,53.57
2019-03-21T20:30:47.215Z,53.47
2019-03-21T20:33:51.698Z,49.73
2019-03-21T20:36:56.436Z,49.43
2019-03-21T20:40:00.813Z,50.60
2019-03-21T20:43:05.030Z,50.33
2019-03-21T20:46:09.182Z,47.73
2019-03-21T20:49:13.561Z,46.03
2019-03-21T20:52:18.014Z,45.63
2019-03-21T20:55:22.138Z,43.63
2019-03-21T20:58:27.185Z,44.93
2019-03-21T21:01:31.625Z,44.43
2019-03-21T21:04:36.070Z,41.57
2019-03-21T21:07:40.268Z,42.27
2019-03-21T21:10:44.413Z,42.13
2019-03-21T21:13:48.619Z,42.40
2019-03-21T21:16:52.814Z,41.10
2019-03-21T21:19:57.071Z,39.87
2019-03-21T21:23:01.285Z,37.63
2019-03-21T21:26:06.042Z,38.13
2019-03-21T21:29:10.207Z,38.13
2019-03-21T21:32:14.547Z,34.37
2019-03-21T21:35:19.144Z,33.73
2019-03-21T21:38:23.258Z,30.27
2019-03-21T21:41:28.194Z,18.57
2019-03-21T21:44:32.607Z,18.47
2019-03-21T21:47:36.849Z,78.07
2019-03-21T21:50:40.984Z,69.60
2019-03-21T21:53:45.800Z,63.90
2019-03-21T21:56:50.270Z,57.93
2019-03-21T21:59:54.732Z,51.30
2019-03-21T22:02:59.217Z,29.77
2019-03-21T22:06:03.817Z,27.27
2019-03-21T22:09:09.242Z,78.93
2019-03-21T22:12:13.378Z,62.63
2019-03-21T22:15:17.767Z,72.97
2019-03-21T22:18:22.181Z,70.57
2019-03-21T22:21:26.729Z,65.27
2019-03-21T22:24:30.943Z,64.87
2019-03-21T22:27:35.553Z,60.00
2019-03-21T22:30:39.759Z,55.10
2019-03-21T22:33:44.254Z,52.70
2019-03-21T22:36:49.656Z,51.93
2019-03-21T22:39:54.045Z,50.10
2019-03-21T22:42:58.357Z,47.10
2019-03-21T22:46:02.343Z,47.27
2019-03-21T22:49:06.538Z,44.10
2019-03-21T22:52:10.706Z,44.40
2019-03-21T22:55:15.773Z,43.60
2019-03-21T22:58:31.172Z,41.77
2019-03-21T23:01:26.174Z,40.07
2019-03-21T23:04:30.633Z,38.87
2019-03-21T23:07:35.184Z,37.87
2019-03-21T23:10:39.955Z,36.70
2019-03-21T23:13:44.087Z,36.57
2019-03-21T23:16:48.236Z,35.23
2019-03-21T23:19:52.446Z,34.13
2019-03-21T23:22:56.654Z,34.07
2019-03-21T23:26:00.863Z,33.90
2019-03-21T23:29:05.391Z,34.37
2019-03-21T23:32:09.937Z,31.67
2019-03-21T23:35:14.622Z,32.60
2019-03-21T23:38:19.313Z,31.73
2019-03-21T23:41:23.762Z,30.07
2019-03-21T23:44:28.257Z,29.90
2019-03-21T23:47:32.477Z,29.57
2019-03-21T23:50:36.949Z,29.60
2019-03-21T23:53:41.378Z,28.33
2019-03-21T23:56:45.499Z,28.27
2019-03-21T23:59:49.634Z,28.27
